MY48 weather

Lake Fremont Seaplane Base
Zimmerman, Minnesota, United States

Public forecast

Using degrees Fahrenheit for public forecast. Weather courtesy of forecast.io.

Closest aviation weather report (METAR) to Lake Fremont Seaplane Base

Closest report is Princeton Municipal Airport, 6.3 nm (11.6 km) NNW. Retrieved 2020/04/08 21:35 UTC (23 minutes ago):

KPNM 082135Z AUTO 29020G25KT 10SM CLR 11/M07 A2982 RMK AO2

Closest aviation forecast (TAF) to Lake Fremont Seaplane Base

Closest forecast is St Cloud Regional Airport, 21.0 nm (38.8 km) WNW. Retrieved 2020/04/08 18:22 UTC (4 hours ago):

TAF KSTC 081720Z 0818/0918 33013G25KT P6SM BKN110 FM090000 30019G30KT P6SM VCSH SCT120 FM090200 30014G24KT P6SM SCT100 FM091200 32019G28KT P6SM BKN080